createdAt,value
2023-12-23T00:01:02.438Z,98.96
2023-12-23T00:03:29.329Z,98.93
2023-12-23T00:05:56.213Z,99.38
2023-12-23T00:08:23.736Z,99.45
2023-12-23T00:10:51.331Z,99.35
2023-12-23T00:13:18.214Z,99.68
2023-12-23T00:15:45.243Z,100.00
2023-12-23T00:18:12.284Z,99.65
2023-12-23T00:20:39.278Z,99.97
2023-12-23T00:23:06.223Z,99.46
2023-12-23T00:25:33.190Z,100.00
2023-12-23T00:28:00.054Z,99.72
2023-12-23T00:30:26.854Z,100.00
2023-12-23T00:32:53.726Z,100.00
2023-12-23T00:35:20.549Z,100.00
2023-12-23T00:37:47.929Z,100.00
2023-12-23T00:40:16.670Z,99.92
2023-12-23T00:42:44.419Z,99.30
2023-12-23T00:45:11.411Z,99.05
2023-12-23T00:47:39.561Z,99.07
2023-12-23T00:50:07.142Z,99.18
2023-12-23T00:52:35.214Z,98.76
2023-12-23T00:55:03.175Z,99.53
2023-12-23T00:57:29.955Z,99.36
2023-12-23T00:59:58.307Z,98.88
2023-12-23T01:02:25.207Z,99.72
2023-12-23T01:04:52.056Z,99.91
2023-12-23T01:07:19.299Z,99.98
2023-12-23T01:09:46.173Z,100.00
2023-12-23T01:12:13.108Z,100.00
2023-12-23T01:14:40.049Z,100.00
2023-12-23T01:17:07.141Z,100.00
2023-12-23T01:19:34.131Z,100.00
2023-12-23T01:22:01.764Z,100.00
2023-12-23T01:24:28.743Z,100.00
2023-12-23T01:26:55.605Z,100.00
2023-12-23T01:29:22.571Z,100.00
2023-12-23T01:31:49.626Z,100.00
2023-12-23T01:34:16.578Z,100.00
2023-12-23T01:36:43.378Z,100.00
2023-12-23T01:39:10.319Z,100.00
2023-12-23T01:41:37.202Z,100.00
2023-12-23T01:44:04.180Z,100.00
2023-12-23T01:46:31.153Z,100.00
2023-12-23T01:48:59.960Z,100.00
2023-12-23T01:51:27.022Z,100.00
2023-12-23T01:53:54.205Z,100.00
2023-12-23T01:56:21.157Z,100.00
2023-12-23T01:58:48.132Z,100.00
2023-12-23T02:01:15.065Z,100.00
2023-12-23T02:03:42.253Z,100.00
2023-12-23T02:06:09.768Z,100.00
2023-12-23T02:08:36.679Z,100.00
2023-12-23T02:11:06.259Z,100.00
2023-12-23T02:13:52.720Z,100.00
2023-12-23T02:16:19.790Z,100.00
2023-12-23T02:18:46.895Z,100.00
2023-12-23T02:21:13.920Z,100.00
2023-12-23T02:23:40.815Z,100.00
2023-12-23T02:26:10.286Z,100.00
2023-12-23T02:28:40.383Z,100.00
2023-12-23T02:31:09.192Z,100.00
2023-12-23T02:33:37.364Z,100.00
2023-12-23T02:36:05.416Z,100.00
2023-12-23T02:38:32.250Z,100.00
2023-12-23T02:40:59.123Z,100.00
2023-12-23T02:43:26.417Z,100.00
2023-12-23T02:45:53.261Z,100.00
2023-12-23T02:48:20.691Z,100.00
2023-12-23T02:50:47.591Z,100.00
2023-12-23T02:53:14.397Z,100.00
2023-12-23T02:55:41.413Z,100.00
2023-12-23T02:58:08.256Z,100.00
2023-12-23T03:00:35.226Z,100.00
2023-12-23T03:03:02.153Z,100.00
2023-12-23T03:05:29.246Z,100.00
2023-12-23T03:07:56.369Z,100.00
2023-12-23T03:10:23.267Z,100.00
2023-12-23T03:12:50.383Z,100.00
2023-12-23T03:15:17.732Z,100.00
2023-12-23T03:17:44.626Z,100.00
2023-12-23T03:20:11.864Z,100.00
2023-12-23T03:22:38.844Z,100.00
2023-12-23T03:25:06.168Z,100.00
2023-12-23T03:27:33.107Z,100.00
2023-12-23T03:29:59.920Z,100.00
2023-12-23T03:32:26.759Z,100.00
2023-12-23T03:34:53.738Z,100.00
2023-12-23T03:37:20.591Z,100.00
2023-12-23T03:39:47.495Z,100.00
2023-12-23T03:42:14.324Z,100.00
2023-12-23T03:44:41.218Z,100.00
2023-12-23T03:47:08.132Z,100.00
2023-12-23T03:49:35.033Z,100.00
2023-12-23T03:54:52.848Z,100.00
2023-12-23T03:57:19.656Z,100.00
2023-12-23T03:59:46.510Z,100.00
2023-12-23T04:02:13.474Z,100.00
2023-12-23T04:04:40.402Z,100.00
2023-12-23T04:07:07.456Z,100.00
2023-12-23T04:09:34.329Z,100.00
2023-12-23T04:12:01.218Z,100.00
2023-12-23T04:14:28.137Z,99.87
2023-12-23T04:16:54.978Z,100.00
2023-12-23T04:19:21.966Z,98.57
2023-12-23T04:21:48.867Z,97.50
2023-12-23T04:24:15.782Z,95.36
2023-12-23T04:26:42.760Z,94.81
2023-12-23T04:29:09.703Z,96.38
2023-12-23T04:31:36.785Z,97.16
2023-12-23T04:34:04.085Z,98.16
2023-12-23T04:36:31.086Z,98.13
2023-12-23T04:38:58.614Z,98.95
2023-12-23T04:41:25.601Z,99.43
2023-12-23T04:43:52.664Z,99.69
2023-12-23T04:46:19.649Z,100.00
2023-12-23T04:48:46.637Z,98.33
2023-12-23T04:51:13.644Z,96.46
2023-12-23T04:53:40.510Z,95.96
2023-12-23T04:56:07.716Z,95.46
2023-12-23T04:58:34.583Z,95.78
2023-12-23T05:01:01.516Z,96.80
2023-12-23T05:03:28.941Z,97.44
2023-12-23T05:05:55.906Z,98.47
2023-12-23T05:08:22.765Z,98.57
2023-12-23T05:10:49.708Z,98.26
2023-12-23T05:13:16.562Z,97.61
2023-12-23T05:15:43.493Z,96.37
2023-12-23T05:18:10.369Z,96.40
2023-12-23T05:20:37.290Z,94.69
2023-12-23T05:23:04.261Z,94.15
2023-12-23T05:25:31.994Z,93.88
2023-12-23T05:27:58.790Z,92.52
2023-12-23T05:30:26.478Z,92.27
2023-12-23T05:32:53.620Z,92.37
2023-12-23T05:35:20.886Z,92.07
2023-12-23T05:37:47.793Z,90.57
2023-12-23T05:40:14.859Z,91.33
2023-12-23T05:42:41.698Z,90.21
2023-12-23T05:45:09.270Z,90.28
2023-12-23T05:47:36.411Z,89.03
2023-12-23T05:50:03.387Z,89.22
2023-12-23T05:52:30.243Z,88.83
2023-12-23T05:54:57.786Z,89.73
2023-12-23T05:57:24.608Z,86.38
2023-12-23T05:59:51.471Z,88.04
2023-12-23T06:02:18.363Z,88.06
2023-12-23T06:04:45.369Z,88.33
2023-12-23T06:07:12.252Z,86.90
2023-12-23T06:09:39.102Z,86.95
2023-12-23T06:12:06.376Z,87.52
2023-12-23T06:14:33.192Z,86.03
2023-12-23T06:17:03.229Z,84.45
2023-12-23T06:19:30.078Z,85.85
2023-12-23T06:21:56.864Z,85.69
2023-12-23T06:24:23.634Z,84.86
2023-12-23T06:26:50.522Z,83.50
2023-12-23T06:29:17.396Z,83.48
2023-12-23T06:31:44.265Z,83.15
2023-12-23T06:34:11.193Z,83.02
2023-12-23T06:36:38.046Z,82.31
2023-12-23T06:39:04.868Z,84.52
2023-12-23T06:41:31.622Z,82.89
2023-12-23T06:43:58.446Z,83.29
2023-12-23T06:46:25.885Z,82.72
2023-12-23T06:48:53.227Z,83.44
2023-12-23T06:51:20.092Z,84.03
2023-12-23T06:53:48.883Z,83.01
2023-12-23T06:56:15.837Z,83.03
2023-12-23T06:58:44.525Z,83.08
2023-12-23T07:01:11.367Z,84.00
2023-12-23T07:03:38.285Z,83.52
2023-12-23T07:06:05.427Z,82.71
2023-12-23T07:08:32.253Z,83.34
2023-12-23T07:10:59.134Z,84.45
2023-12-23T07:13:26.250Z,84.46
2023-12-23T07:15:53.047Z,84.25
2023-12-23T07:18:19.926Z,85.32
2023-12-23T07:20:46.787Z,85.66
2023-12-23T07:23:13.621Z,86.13
2023-12-23T07:25:40.505Z,86.76
2023-12-23T07:28:07.537Z,87.05
2023-12-23T07:30:34.403Z,87.82
2023-12-23T07:33:01.490Z,89.56
2023-12-23T07:35:28.448Z,90.89
2023-12-23T07:37:55.358Z,91.57
2023-12-23T07:40:22.355Z,93.02
2023-12-23T07:42:49.576Z,93.69
2023-12-23T07:45:16.964Z,94.35
2023-12-23T07:47:44.010Z,95.78
2023-12-23T07:50:11.184Z,95.92
2023-12-23T07:52:38.268Z,96.16
2023-12-23T07:55:05.594Z,96.87
2023-12-23T07:57:32.602Z,96.97
2023-12-23T07:59:59.628Z,97.57
2023-12-23T08:02:26.622Z,97.33
2023-12-23T08:04:53.795Z,96.68
2023-12-23T08:07:21.143Z,95.57
2023-12-23T08:09:48.146Z,94.82
2023-12-23T08:12:15.090Z,94.41
2023-12-23T08:14:42.037Z,92.02
2023-12-23T08:17:09.062Z,90.72
2023-12-23T08:19:36.139Z,86.39
2023-12-23T08:22:03.162Z,88.01
2023-12-23T08:24:30.130Z,89.42
2023-12-23T08:26:57.859Z,87.68
2023-12-23T08:29:24.792Z,87.79
2023-12-23T08:31:52.136Z,88.63
2023-12-23T08:34:20.793Z,87.04
2023-12-23T08:36:49.227Z,87.95
2023-12-23T08:39:16.318Z,87.70
2023-12-23T08:41:43.250Z,87.53
2023-12-23T08:44:10.313Z,86.87
2023-12-23T08:46:37.323Z,87.27
2023-12-23T08:49:04.459Z,86.91
2023-12-23T08:51:31.796Z,87.96
2023-12-23T08:53:59.122Z,86.81
2023-12-23T08:56:26.208Z,86.08
2023-12-23T08:58:53.324Z,87.82
2023-12-23T09:01:20.309Z,87.04
2023-12-23T09:03:47.393Z,86.72
2023-12-23T09:06:14.498Z,86.69
2023-12-23T09:08:41.569Z,87.81
2023-12-23T09:11:08.674Z,88.17
2023-12-23T09:13:35.673Z,88.71
2023-12-23T09:16:03.944Z,90.35
2023-12-23T09:18:31.031Z,91.68
2023-12-23T09:20:58.352Z,92.74
2023-12-23T09:23:25.566Z,92.83
2023-12-23T09:25:52.630Z,93.69
2023-12-23T09:28:19.644Z,94.55
2023-12-23T09:30:46.712Z,94.55
2023-12-23T09:33:13.799Z,95.20
2023-12-23T09:35:40.901Z,95.09
2023-12-23T09:38:07.998Z,95.75
2023-12-23T09:40:35.005Z,96.71
2023-12-23T09:43:02.735Z,96.97
2023-12-23T09:45:32.110Z,96.45
2023-12-23T09:47:59.479Z,96.91
2023-12-23T09:50:26.663Z,97.47
2023-12-23T09:52:54.240Z,97.31
2023-12-23T09:55:22.045Z,98.01
2023-12-23T09:57:49.412Z,97.82
2023-12-23T10:00:16.943Z,97.69
2023-12-23T10:02:43.964Z,97.93
2023-12-23T10:05:10.998Z,98.54
2023-12-23T10:07:38.554Z,98.41
2023-12-23T10:10:06.233Z,98.46
2023-12-23T10:12:33.170Z,98.06
2023-12-23T10:15:00.278Z,98.64
2023-12-23T10:17:27.420Z,98.79
2023-12-23T10:19:54.398Z,98.64
2023-12-23T10:22:27.374Z,98.73
2023-12-23T10:24:54.272Z,98.87
2023-12-23T10:27:22.246Z,99.03
2023-12-23T10:29:59.084Z,98.86
2023-12-23T10:32:31.002Z,98.71
2023-12-23T10:35:02.070Z,99.59
2023-12-23T10:37:30.561Z,99.73
2023-12-23T10:40:10.699Z,99.80
2023-12-23T10:42:39.704Z,99.66
2023-12-23T10:45:07.980Z,100.00
2023-12-23T10:47:36.368Z,100.00
2023-12-23T10:50:05.481Z,100.00
2023-12-23T10:52:33.519Z,100.00
2023-12-23T10:55:03.829Z,100.00
2023-12-23T10:57:32.619Z,100.00
2023-12-23T10:59:59.803Z,100.00
2023-12-23T11:02:29.169Z,100.00
2023-12-23T11:04:59.188Z,100.00
2023-12-23T11:07:30.603Z,100.00
2023-12-23T11:10:00.865Z,100.00
2023-12-23T11:12:29.715Z,100.00
2023-12-23T11:14:58.858Z,100.00
2023-12-23T11:17:28.901Z,100.00
2023-12-23T11:20:00.611Z,100.00
2023-12-23T11:22:38.779Z,100.00
2023-12-23T11:25:37.389Z,100.00
2023-12-23T11:28:11.086Z,100.00
2023-12-23T11:30:51.801Z,100.00
2023-12-23T11:33:22.968Z,100.00
2023-12-23T11:35:51.643Z,100.00
2023-12-23T11:38:18.701Z,100.00
2023-12-23T11:40:47.423Z,100.00
2023-12-23T11:43:15.400Z,100.00
2023-12-23T11:45:43.756Z,100.00
2023-12-23T11:48:11.546Z,100.00
2023-12-23T11:50:38.638Z,100.00
2023-12-23T11:53:06.924Z,100.00
2023-12-23T11:55:35.275Z,100.00
2023-12-23T11:58:02.460Z,100.00
2023-12-23T12:00:31.020Z,100.00
2023-12-23T12:02:58.596Z,100.00
2023-12-23T12:05:25.616Z,100.00
2023-12-23T12:07:52.655Z,100.00
2023-12-23T12:10:19.812Z,100.00
2023-12-23T12:12:46.860Z,100.00
2023-12-23T12:15:13.770Z,100.00
2023-12-23T12:17:40.889Z,100.00
2023-12-23T12:20:08.656Z,100.00
2023-12-23T12:22:35.630Z,100.00
2023-12-23T12:25:02.759Z,100.00
2023-12-23T12:27:30.886Z,100.00
2023-12-23T12:29:59.325Z,100.00
2023-12-23T12:32:26.357Z,100.00
2023-12-23T12:35:23.895Z,100.00
2023-12-23T12:37:51.001Z,100.00
2023-12-23T12:43:08.774Z,100.00
2023-12-23T12:48:30.293Z,100.00
2023-12-23T12:50:57.809Z,100.00
2023-12-23T12:53:25.588Z,100.00
2023-12-23T12:55:52.673Z,100.00
2023-12-23T12:58:19.696Z,100.00
2023-12-23T13:00:46.634Z,100.00
2023-12-23T13:03:38.786Z,100.00
2023-12-23T13:06:06.089Z,100.00
2023-12-23T13:08:33.154Z,100.00
2023-12-23T13:11:00.223Z,100.00
2023-12-23T13:13:27.243Z,100.00
2023-12-23T13:15:54.274Z,100.00
2023-12-23T13:18:21.330Z,100.00
2023-12-23T13:20:49.673Z,100.00
2023-12-23T13:23:16.764Z,100.00
2023-12-23T13:25:45.091Z,100.00
2023-12-23T13:28:12.126Z,100.00
2023-12-23T13:30:39.160Z,100.00
2023-12-23T13:33:06.240Z,98.24
2023-12-23T13:35:33.338Z,98.41
2023-12-23T13:38:00.465Z,99.43
2023-12-23T13:40:27.397Z,100.00
2023-12-23T13:42:54.551Z,98.10
2023-12-23T13:45:21.774Z,96.94
2023-12-23T13:47:50.408Z,99.22
2023-12-23T13:50:18.972Z,98.34
2023-12-23T13:52:46.172Z,100.00
2023-12-23T13:55:13.061Z,99.12
2023-12-23T13:57:40.031Z,97.30
2023-12-23T14:00:07.540Z,97.98
2023-12-23T14:02:34.533Z,98.12
2023-12-23T14:05:01.591Z,97.06
2023-12-23T14:07:28.628Z,96.44
2023-12-23T14:09:55.504Z,95.58
2023-12-23T14:12:22.515Z,95.80
2023-12-23T14:14:49.429Z,94.96
2023-12-23T14:17:16.456Z,94.23
2023-12-23T14:19:43.370Z,91.11
2023-12-23T14:22:10.337Z,92.51
2023-12-23T14:24:37.344Z,94.01
2023-12-23T14:27:04.332Z,93.49
2023-12-23T14:29:31.340Z,92.83
2023-12-23T14:31:58.408Z,92.60
2023-12-23T14:34:25.352Z,89.13
2023-12-23T14:36:52.461Z,91.86
2023-12-23T14:39:22.632Z,92.89
2023-12-23T14:41:51.446Z,90.72
2023-12-23T14:44:18.537Z,91.07
2023-12-23T14:46:45.799Z,90.21
2023-12-23T14:49:13.424Z,91.10
2023-12-23T14:51:40.592Z,90.05
2023-12-23T14:54:07.647Z,89.76
2023-12-23T14:56:34.682Z,88.09
2023-12-23T14:59:01.849Z,87.35
2023-12-23T15:01:28.931Z,89.51
2023-12-23T15:03:55.959Z,88.92
2023-12-23T15:06:23.093Z,88.94
2023-12-23T15:08:50.225Z,89.33
2023-12-23T15:11:17.220Z,86.36
2023-12-23T15:13:44.256Z,87.30
2023-12-23T15:16:11.217Z,87.90
2023-12-23T15:18:38.471Z,87.20
2023-12-23T15:21:07.022Z,87.13
2023-12-23T15:23:34.228Z,86.40
2023-12-23T15:26:01.297Z,85.69
2023-12-23T15:28:31.129Z,85.62
2023-12-23T15:30:58.141Z,86.36
2023-12-23T15:33:25.123Z,85.48
2023-12-23T15:35:52.173Z,85.08
2023-12-23T15:38:19.131Z,85.64
2023-12-23T15:40:46.190Z,85.38
2023-12-23T15:43:15.698Z,84.96
2023-12-23T15:45:43.286Z,83.11
2023-12-23T15:48:10.484Z,84.70
2023-12-23T15:50:37.663Z,84.55
2023-12-23T15:53:04.945Z,83.66
2023-12-23T15:55:34.603Z,83.24
2023-12-23T15:58:03.064Z,84.86
2023-12-23T16:00:30.305Z,84.69
2023-12-23T16:05:42.322Z,82.19
2023-12-23T16:08:09.882Z,82.03
2023-12-23T16:10:38.110Z,82.66
2023-12-23T16:13:05.499Z,83.04
2023-12-23T16:15:33.652Z,82.21
2023-12-23T16:18:01.282Z,83.30
2023-12-23T16:20:30.926Z,82.49
2023-12-23T16:23:02.526Z,82.25
2023-12-23T16:25:29.804Z,82.06
2023-12-23T16:27:56.929Z,81.49
2023-12-23T16:30:23.957Z,81.58
2023-12-23T16:32:51.196Z,80.86
2023-12-23T16:35:18.474Z,81.52
2023-12-23T16:37:46.092Z,82.61
2023-12-23T16:40:13.768Z,80.94
2023-12-23T16:42:40.812Z,81.37
2023-12-23T16:45:09.539Z,80.43
2023-12-23T16:47:36.798Z,81.37
2023-12-23T16:50:05.239Z,79.53
2023-12-23T16:52:32.477Z,79.03
2023-12-23T16:55:00.019Z,78.79
2023-12-23T16:57:27.013Z,78.55
2023-12-23T16:59:53.975Z,79.39
2023-12-23T17:02:23.302Z,79.27
2023-12-23T17:04:51.458Z,80.48
2023-12-23T17:07:18.481Z,82.94
2023-12-23T17:09:45.531Z,85.19
2023-12-23T17:12:12.491Z,86.76
2023-12-23T17:14:39.466Z,85.95
2023-12-23T17:17:06.512Z,86.47
2023-12-23T17:19:34.110Z,89.82
2023-12-23T17:22:01.086Z,90.78
2023-12-23T17:24:28.196Z,91.37
2023-12-23T17:26:55.091Z,92.55
2023-12-23T17:29:22.206Z,93.23
2023-12-23T17:31:49.300Z,94.59
2023-12-23T17:34:16.328Z,95.52
2023-12-23T17:36:43.510Z,96.83
2023-12-23T17:39:14.880Z,97.44
2023-12-23T17:41:44.192Z,99.03
2023-12-23T17:44:11.174Z,99.66
2023-12-23T17:46:38.175Z,99.91
2023-12-23T17:49:05.232Z,100.00
2023-12-23T17:51:32.216Z,100.00
2023-12-23T17:53:59.259Z,100.00
2023-12-23T17:56:26.364Z,100.00
2023-12-23T17:58:53.322Z,100.00
2023-12-23T18:01:20.288Z,100.00
2023-12-23T18:03:47.407Z,100.00
2023-12-23T18:06:14.416Z,100.00
2023-12-23T18:08:41.420Z,100.00
2023-12-23T18:11:08.508Z,100.00
2023-12-23T18:13:35.459Z,100.00
2023-12-23T18:16:02.486Z,100.00
2023-12-23T18:18:29.586Z,100.00
2023-12-23T18:20:56.552Z,100.00
2023-12-23T18:23:23.635Z,100.00
2023-12-23T18:25:50.771Z,100.00
2023-12-23T18:28:17.767Z,100.00
2023-12-23T18:30:45.010Z,100.00
2023-12-23T18:33:12.269Z,100.00
2023-12-23T18:35:39.399Z,100.00
2023-12-23T18:38:06.574Z,100.00
2023-12-23T18:40:33.634Z,100.00
2023-12-23T18:43:00.575Z,100.00
2023-12-23T18:45:27.776Z,100.00
2023-12-23T18:47:54.707Z,100.00
2023-12-23T18:50:21.789Z,100.00
2023-12-23T18:52:50.422Z,100.00
2023-12-23T18:55:17.618Z,100.00
2023-12-23T18:57:44.607Z,100.00
2023-12-23T19:00:12.128Z,100.00
2023-12-23T19:02:39.204Z,100.00
2023-12-23T19:05:06.536Z,100.00
2023-12-23T19:07:33.517Z,100.00
2023-12-23T19:10:00.580Z,100.00
2023-12-23T19:12:27.585Z,100.00
2023-12-23T19:14:54.657Z,100.00
2023-12-23T19:17:21.710Z,100.00
2023-12-23T19:19:48.732Z,100.00
2023-12-23T19:22:15.749Z,100.00
2023-12-23T19:24:45.931Z,100.00
2023-12-23T19:27:13.205Z,100.00
2023-12-23T19:29:40.302Z,100.00
2023-12-23T19:32:07.299Z,100.00
2023-12-23T19:34:34.438Z,100.00
2023-12-23T19:37:01.512Z,100.00
2023-12-23T19:39:28.414Z,99.82
2023-12-23T19:41:55.201Z,99.94
2023-12-23T19:44:22.134Z,98.69
2023-12-23T19:46:49.173Z,95.70
2023-12-23T19:49:16.204Z,96.07
2023-12-23T19:51:43.105Z,97.02
2023-12-23T19:54:09.845Z,97.73
2023-12-23T19:56:36.758Z,99.04
2023-12-23T19:59:03.694Z,96.86
2023-12-23T20:01:30.828Z,95.27
2023-12-23T20:03:57.640Z,97.32
2023-12-23T20:06:24.982Z,97.02
2023-12-23T20:08:51.958Z,93.97
2023-12-23T20:11:28.097Z,93.68
2023-12-23T20:13:54.925Z,94.92
2023-12-23T20:16:28.784Z,92.06
2023-12-23T20:18:56.273Z,93.77
2023-12-23T20:21:24.113Z,90.47
2023-12-23T20:23:52.219Z,93.29
2023-12-23T20:26:20.114Z,94.49
2023-12-23T20:28:47.293Z,93.94
2023-12-23T20:31:16.035Z,93.23
2023-12-23T20:33:43.312Z,92.65
2023-12-23T20:36:10.261Z,93.57
2023-12-23T20:38:37.117Z,93.33
2023-12-23T20:41:06.613Z,92.46
2023-12-23T20:43:33.554Z,93.99
2023-12-23T20:46:00.468Z,90.97
2023-12-23T20:48:27.380Z,89.03
2023-12-23T20:50:56.564Z,91.20
2023-12-23T20:53:24.226Z,92.17
2023-12-23T20:55:51.232Z,89.60
2023-12-23T20:58:18.099Z,89.94
2023-12-23T21:00:44.978Z,88.46
2023-12-23T21:03:11.898Z,88.77
2023-12-23T21:05:38.918Z,86.91
2023-12-23T21:08:06.292Z,87.97
2023-12-23T21:10:35.558Z,86.95
2023-12-23T21:13:03.694Z,85.52
2023-12-23T21:15:30.509Z,83.54
2023-12-23T21:17:57.465Z,82.66
2023-12-23T21:20:24.379Z,84.68
2023-12-23T21:22:51.595Z,83.77
2023-12-23T21:25:18.456Z,82.74
2023-12-23T21:27:45.279Z,83.48
2023-12-23T21:30:12.492Z,81.88
2023-12-23T21:32:39.494Z,81.25
2023-12-23T21:35:06.595Z,81.38
2023-12-23T21:37:33.670Z,82.50
2023-12-23T21:40:00.587Z,82.24
2023-12-23T21:42:27.394Z,82.17
2023-12-23T21:44:54.220Z,81.19
2023-12-23T21:47:21.616Z,81.45
2023-12-23T21:49:48.547Z,80.63
2023-12-23T21:52:15.367Z,78.99
2023-12-23T21:54:42.180Z,80.58
2023-12-23T21:57:09.032Z,80.21
2023-12-23T21:59:35.842Z,80.02
2023-12-23T22:02:02.753Z,79.19
2023-12-23T22:04:29.546Z,79.78
2023-12-23T22:06:57.384Z,78.46
2023-12-23T22:09:24.194Z,77.80
2023-12-23T22:11:50.950Z,76.14
2023-12-23T22:14:17.809Z,78.04
2023-12-23T22:16:44.614Z,77.59
2023-12-23T22:19:11.456Z,77.65
2023-12-23T22:21:38.517Z,77.90
2023-12-23T22:24:05.747Z,78.33
2023-12-23T22:26:32.633Z,78.10
2023-12-23T22:28:59.443Z,78.49
2023-12-23T22:31:26.255Z,77.79
2023-12-23T22:33:53.166Z,77.54
2023-12-23T22:36:20.014Z,76.48
2023-12-23T22:38:46.812Z,76.95
2023-12-23T22:41:13.744Z,75.30
2023-12-23T22:43:40.686Z,77.25
2023-12-23T22:46:07.956Z,76.03
2023-12-23T22:48:34.994Z,76.03
2023-12-23T22:51:01.807Z,75.74
2023-12-23T22:53:28.666Z,75.07
2023-12-23T22:55:55.509Z,75.58
2023-12-23T22:58:22.273Z,76.26
2023-12-23T23:00:49.068Z,76.19
2023-12-23T23:03:15.852Z,74.97
2023-12-23T23:05:42.782Z,75.85
2023-12-23T23:08:09.579Z,76.30
2023-12-23T23:10:36.572Z,75.10
2023-12-23T23:13:03.474Z,75.93
2023-12-23T23:15:30.328Z,76.38
2023-12-23T23:17:57.325Z,75.63
2023-12-23T23:20:24.332Z,75.43
2023-12-23T23:22:51.849Z,76.19
2023-12-23T23:25:18.906Z,75.71
2023-12-23T23:28:10.141Z,75.60
2023-12-23T23:30:36.989Z,73.78
2023-12-23T23:33:04.023Z,76.00
2023-12-23T23:35:31.380Z,75.96
2023-12-23T23:37:58.262Z,76.27
2023-12-23T23:40:25.183Z,75.49
2023-12-23T23:42:52.172Z,74.99
2023-12-23T23:45:19.213Z,76.29
2023-12-23T23:47:46.077Z,76.26
2023-12-23T23:50:13.117Z,76.60
2023-12-23T23:52:39.948Z,76.33
2023-12-23T23:55:08.288Z,76.37
2023-12-23T23:57:39.917Z,76.67
